createdAt,value
2023-04-10T00:00:04.152Z,3.45
2023-04-10T00:01:06.887Z,3.46
2023-04-10T00:02:09.158Z,3.50
2023-04-10T00:03:11.696Z,3.50
2023-04-10T00:04:14.732Z,3.50
2023-04-10T00:05:16.734Z,3.56
2023-04-10T00:06:18.786Z,3.67
2023-04-10T00:07:21.181Z,3.69
2023-04-10T00:08:24.535Z,3.58
2023-04-10T00:09:27.402Z,3.53
2023-04-10T00:10:31.732Z,3.62
2023-04-10T00:11:33.848Z,3.61
2023-04-10T00:12:37.711Z,3.60
2023-04-10T00:13:39.560Z,3.68
2023-04-10T00:14:41.890Z,3.72
2023-04-10T00:15:43.818Z,3.57
2023-04-10T00:16:45.764Z,3.68
2023-04-10T00:17:50.574Z,3.72
2023-04-10T00:18:52.497Z,3.73
2023-04-10T00:19:54.406Z,3.54
2023-04-10T00:20:56.333Z,3.55
2023-04-10T00:21:58.189Z,3.67
2023-04-10T00:23:00.457Z,3.84
2023-04-10T00:24:02.395Z,3.75
2023-04-10T00:25:06.598Z,3.87
2023-04-10T00:26:08.912Z,3.88
2023-04-10T00:27:10.811Z,3.81
2023-04-10T00:28:13.031Z,3.86
2023-04-10T00:29:14.953Z,3.94
2023-04-10T00:30:16.818Z,3.95
2023-04-10T00:31:18.666Z,3.95
2023-04-10T00:32:20.770Z,3.98
2023-04-10T00:33:23.011Z,4.05
2023-04-10T00:34:24.925Z,3.94
2023-04-10T00:35:27.023Z,3.92
2023-04-10T00:36:29.095Z,3.84
2023-04-10T00:37:30.959Z,3.95
2023-04-10T00:38:33.108Z,3.97
2023-04-10T00:39:34.989Z,3.98
2023-04-10T00:40:36.868Z,4.00
2023-04-10T00:41:38.927Z,3.86
2023-04-10T00:42:41.747Z,3.96
2023-04-10T00:43:44.855Z,3.89
2023-04-10T00:44:46.790Z,3.93
2023-04-10T00:45:50.463Z,3.94
2023-04-10T00:46:52.895Z,3.98
2023-04-10T00:47:55.778Z,3.93
2023-04-10T00:48:58.544Z,3.99
2023-04-10T00:50:00.555Z,4.04
2023-04-10T00:51:02.949Z,4.07
2023-04-10T00:52:04.959Z,4.17
2023-04-10T00:53:07.947Z,4.20
2023-04-10T00:54:11.261Z,4.07
2023-04-10T00:55:13.510Z,4.07
2023-04-10T00:56:15.714Z,3.91
2023-04-10T00:57:17.830Z,3.91
2023-04-10T00:58:19.766Z,3.84
2023-04-10T00:59:21.938Z,3.78
2023-04-10T01:00:23.829Z,3.74
2023-04-10T01:01:26.270Z,3.76
2023-04-10T01:02:28.306Z,3.69
2023-04-10T01:03:30.385Z,3.61
2023-04-10T01:04:33.919Z,3.80
2023-04-10T01:05:42.268Z,3.82
2023-04-10T01:07:00.631Z,3.60
2023-04-10T01:08:12.656Z,3.49
2023-04-10T01:09:20.721Z,3.50
2023-04-10T01:10:25.762Z,3.79
2023-04-10T01:11:54.885Z,3.83
2023-04-10T01:13:27.470Z,3.73
2023-04-10T01:15:00.186Z,3.80
2023-04-10T01:16:08.647Z,3.88
2023-04-10T01:17:28.685Z,3.86
2023-04-10T01:18:53.502Z,3.87
2023-04-10T01:20:00.867Z,3.75
2023-04-10T01:21:09.353Z,3.69
2023-04-10T01:22:16.294Z,3.61
2023-04-10T01:23:28.015Z,3.60
2023-04-10T01:24:54.259Z,3.55
2023-04-10T01:26:10.022Z,3.57
2023-04-10T01:27:44.181Z,3.58
2023-04-10T01:29:11.830Z,3.58
2023-04-10T01:30:19.359Z,3.54
2023-04-10T01:31:26.383Z,3.55
2023-04-10T01:32:34.190Z,3.56
2023-04-10T01:33:50.729Z,3.60
2023-04-10T01:34:55.734Z,3.63
2023-04-10T01:36:00.976Z,3.52
2023-04-10T01:37:08.493Z,3.38
2023-04-10T01:38:12.246Z,3.17
2023-04-10T01:39:17.868Z,3.24
2023-04-10T01:40:21.809Z,2.87
2023-04-10T01:41:26.305Z,3.00
2023-04-10T01:42:32.741Z,2.93
2023-04-10T01:43:36.106Z,3.00
2023-04-10T01:44:42.241Z,3.01
2023-04-10T01:45:46.554Z,2.98
2023-04-10T01:46:50.095Z,3.04
2023-04-10T01:47:52.748Z,2.97
2023-04-10T01:48:56.837Z,2.98
2023-04-10T01:49:59.415Z,3.11
2023-04-10T01:51:04.629Z,3.08
2023-04-10T01:52:07.209Z,2.98
2023-04-10T01:53:10.259Z,3.05
2023-04-10T01:54:13.292Z,3.04
2023-04-10T01:55:15.817Z,3.04
2023-04-10T01:56:18.772Z,3.06
2023-04-10T01:57:21.336Z,2.92
2023-04-10T01:58:24.839Z,2.99
2023-04-10T01:59:28.305Z,2.96
2023-04-10T02:00:30.580Z,2.92
2023-04-10T02:01:32.942Z,2.98
2023-04-10T02:02:35.038Z,3.02
2023-04-10T02:03:37.194Z,3.16
2023-04-10T02:04:39.719Z,3.21
2023-04-10T02:05:41.662Z,3.22
2023-04-10T02:07:07.552Z,3.08
2023-04-10T02:08:18.096Z,3.19
2023-04-10T02:09:31.370Z,3.12
2023-04-10T02:10:45.890Z,3.15
2023-04-10T02:11:55.022Z,3.12
2023-04-10T02:13:05.557Z,3.10
2023-04-10T02:14:11.940Z,3.19
2023-04-10T02:15:19.180Z,3.13
2023-04-10T02:16:22.879Z,2.98
2023-04-10T02:17:28.936Z,3.09
2023-04-10T02:18:35.455Z,3.11
2023-04-10T02:19:38.686Z,2.98
2023-04-10T02:20:41.969Z,3.07
2023-04-10T02:21:43.932Z,3.00
2023-04-10T02:22:46.590Z,3.08
2023-04-10T02:23:48.865Z,3.10
2023-04-10T02:24:51.106Z,3.00
2023-04-10T02:25:53.139Z,3.04
2023-04-10T02:26:55.042Z,3.19
2023-04-10T02:27:58.083Z,3.29
2023-04-10T02:29:00.299Z,3.30
2023-04-10T02:30:04.132Z,3.26
2023-04-10T02:31:07.325Z,3.13
2023-04-10T02:32:09.494Z,3.20
2023-04-10T02:33:11.524Z,3.21
2023-04-10T02:34:13.686Z,3.06
2023-04-10T02:35:15.615Z,3.00
2023-04-10T02:36:17.528Z,3.08
2023-04-10T02:37:19.440Z,3.02
2023-04-10T02:38:22.072Z,3.06
2023-04-10T02:39:24.934Z,3.06
2023-04-10T02:40:27.532Z,2.92
2023-04-10T02:41:30.622Z,2.98
2023-04-10T02:42:33.057Z,2.98
2023-04-10T02:43:35.290Z,2.97
2023-04-10T02:44:39.848Z,2.85
2023-04-10T02:45:42.590Z,2.89
2023-04-10T02:46:44.914Z,2.84
2023-04-10T02:47:47.433Z,2.80
2023-04-10T02:48:49.805Z,2.72
2023-04-10T02:49:52.049Z,2.70
2023-04-10T02:50:59.856Z,2.73
2023-04-10T02:52:02.775Z,2.92
2023-04-10T02:53:04.683Z,3.01
2023-04-10T02:54:06.614Z,3.11
2023-04-10T02:55:09.620Z,3.16
2023-04-10T02:56:12.615Z,2.96
2023-04-10T02:57:14.623Z,2.81
2023-04-10T02:58:17.434Z,2.81
2023-04-10T02:59:19.569Z,2.86
2023-04-10T03:00:23.030Z,2.84
2023-04-10T03:01:25.781Z,2.82
2023-04-10T03:02:27.965Z,2.71
2023-04-10T03:03:30.899Z,2.87
2023-04-10T03:04:32.938Z,2.81
2023-04-10T03:05:35.206Z,2.92
2023-04-10T03:06:37.180Z,2.88
2023-04-10T03:07:39.100Z,2.81
2023-04-10T03:08:41.342Z,2.73
2023-04-10T03:09:43.281Z,2.77
2023-04-10T03:10:46.683Z,2.72
2023-04-10T03:11:48.801Z,2.92
2023-04-10T03:12:50.671Z,2.80
2023-04-10T03:13:52.662Z,2.75
2023-04-10T03:14:54.738Z,2.79
2023-04-10T03:15:57.055Z,2.77
2023-04-10T03:16:59.291Z,2.66
2023-04-10T03:18:01.263Z,2.70
2023-04-10T03:19:03.646Z,2.71
2023-04-10T03:20:06.464Z,2.61
2023-04-10T03:21:09.343Z,2.69
2023-04-10T03:22:11.579Z,2.61
2023-04-10T03:23:15.876Z,2.62
2023-04-10T03:24:17.880Z,2.62
2023-04-10T03:25:19.760Z,2.54
2023-04-10T03:26:23.995Z,2.44
2023-04-10T03:27:26.086Z,2.46
2023-04-10T03:28:27.962Z,2.34
2023-04-10T03:29:29.907Z,2.36
2023-04-10T03:30:31.908Z,2.38
2023-04-10T03:31:34.074Z,2.36
2023-04-10T03:32:36.077Z,2.51
2023-04-10T03:33:38.060Z,2.53
2023-04-10T03:34:39.943Z,2.59
2023-04-10T03:35:42.162Z,2.59
2023-04-10T03:36:44.351Z,2.50
2023-04-10T03:37:46.210Z,2.54
2023-04-10T03:38:48.110Z,2.59
2023-04-10T03:39:50.020Z,2.59
2023-04-10T03:40:52.042Z,2.58
2023-04-10T03:41:54.537Z,2.75
2023-04-10T03:42:59.065Z,2.72
2023-04-10T03:44:04.378Z,2.63
2023-04-10T03:45:07.218Z,2.76
2023-04-10T03:46:09.083Z,2.76
2023-04-10T03:47:14.511Z,2.93
2023-04-10T03:48:18.379Z,3.05
2023-04-10T03:49:21.230Z,3.04
2023-04-10T03:50:23.192Z,3.18
2023-04-10T03:51:26.810Z,3.21
2023-04-10T03:52:28.991Z,3.28
2023-04-10T03:53:36.033Z,3.32
2023-04-10T03:54:39.086Z,3.33
2023-04-10T03:55:41.820Z,3.41
2023-04-10T03:56:44.336Z,3.32
2023-04-10T03:57:47.501Z,3.05
2023-04-10T03:58:50.040Z,3.01
2023-04-10T03:59:52.131Z,2.99
2023-04-10T04:00:54.165Z,2.78
2023-04-10T04:01:57.663Z,2.89
2023-04-10T04:03:01.103Z,2.99
2023-04-10T04:04:06.337Z,3.04
2023-04-10T04:05:15.482Z,3.09
2023-04-10T04:06:18.377Z,3.00
2023-04-10T04:07:20.886Z,2.86
2023-04-10T04:08:23.084Z,2.70
2023-04-10T04:09:26.067Z,2.68
2023-04-10T04:10:28.165Z,2.70
2023-04-10T04:11:31.427Z,2.59
2023-04-10T04:12:33.728Z,2.60
2023-04-10T04:13:35.877Z,2.56
2023-04-10T04:14:38.500Z,2.51
2023-04-10T04:15:43.609Z,2.62
2023-04-10T04:16:46.489Z,2.52
2023-04-10T04:17:49.382Z,2.67
2023-04-10T04:18:52.633Z,2.63
2023-04-10T04:19:55.356Z,2.65
2023-04-10T04:20:57.356Z,2.44
2023-04-10T04:22:05.964Z,2.42
2023-04-10T04:23:10.622Z,2.37
2023-04-10T04:24:12.947Z,2.35
2023-04-10T04:25:20.528Z,2.48
2023-04-10T04:26:24.930Z,2.69
2023-04-10T04:27:27.146Z,2.63
2023-04-10T04:28:30.355Z,2.62
2023-04-10T04:29:32.833Z,2.65
2023-04-10T04:30:35.349Z,2.66
2023-04-10T04:31:38.387Z,2.80
2023-04-10T04:32:40.998Z,2.80
2023-04-10T04:33:43.950Z,2.84
2023-04-10T04:34:46.331Z,2.70
2023-04-10T04:35:49.492Z,2.79
2023-04-10T04:36:51.751Z,2.78
2023-04-10T04:37:53.684Z,2.83
2023-04-10T04:38:56.575Z,2.78
2023-04-10T04:39:58.965Z,2.83
2023-04-10T04:41:06.566Z,2.63
2023-04-10T04:42:09.201Z,2.85
2023-04-10T04:43:11.842Z,2.90
2023-04-10T04:44:14.413Z,2.77
2023-04-10T04:45:17.644Z,2.76
2023-04-10T04:46:19.970Z,2.83
2023-04-10T04:47:24.433Z,2.95
2023-04-10T04:48:26.527Z,2.91
2023-04-10T04:49:28.926Z,3.01
2023-04-10T04:50:30.932Z,2.96
2023-04-10T04:51:33.020Z,2.95
2023-04-10T04:52:36.571Z,3.04
2023-04-10T04:53:39.003Z,3.04
2023-04-10T04:54:41.317Z,3.12
2023-04-10T04:55:43.534Z,3.16
2023-04-10T04:56:49.089Z,3.20
2023-04-10T04:57:51.483Z,3.29
2023-04-10T04:58:53.726Z,3.40
2023-04-10T04:59:56.634Z,3.44
2023-04-10T05:00:58.698Z,3.53
2023-04-10T05:02:00.827Z,3.72
2023-04-10T05:03:07.067Z,3.69
2023-04-10T05:04:09.500Z,3.74
2023-04-10T05:05:11.852Z,3.82
2023-04-10T05:06:15.494Z,3.74
2023-04-10T05:07:19.239Z,3.82
2023-04-10T05:08:24.077Z,3.78
2023-04-10T05:09:29.063Z,3.87
2023-04-10T05:10:34.303Z,3.98
2023-04-10T05:11:36.997Z,4.08
2023-04-10T05:12:43.313Z,4.06
2023-04-10T05:13:50.542Z,4.12
2023-04-10T05:14:56.037Z,4.20
2023-04-10T05:16:00.447Z,4.22
2023-04-10T05:17:04.660Z,4.29
2023-04-10T05:18:09.979Z,4.38
2023-04-10T05:19:14.324Z,4.48
2023-04-10T05:20:19.879Z,4.63
2023-04-10T05:21:22.671Z,4.74
2023-04-10T05:22:27.699Z,4.78
2023-04-10T05:23:32.285Z,5.19
2023-04-10T05:24:34.927Z,5.16
2023-04-10T05:25:37.300Z,5.22
2023-04-10T05:26:41.066Z,5.41
2023-04-10T05:27:43.128Z,5.30
2023-04-10T05:28:48.579Z,5.36
2023-04-10T05:29:50.931Z,5.43
2023-04-10T05:30:53.269Z,5.47
2023-04-10T05:31:57.393Z,5.47
2023-04-10T05:33:00.376Z,5.57
2023-04-10T05:34:02.500Z,5.71
2023-04-10T05:35:04.783Z,5.66
2023-04-10T05:36:07.228Z,5.76
2023-04-10T05:37:12.924Z,5.87
2023-04-10T05:38:15.366Z,6.01
2023-04-10T05:39:17.408Z,6.22
2023-04-10T05:40:20.353Z,6.34
2023-04-10T05:41:24.150Z,6.37
2023-04-10T05:42:29.142Z,6.51
2023-04-10T05:43:32.278Z,6.50
2023-04-10T05:44:35.115Z,6.67
2023-04-10T05:45:37.395Z,6.67
2023-04-10T05:46:40.802Z,6.72
2023-04-10T05:47:43.877Z,6.83
2023-04-10T05:48:46.073Z,6.92
2023-04-10T05:49:50.035Z,7.06
2023-04-10T05:50:54.713Z,7.10
2023-04-10T05:51:59.300Z,7.35
2023-04-10T05:53:03.961Z,7.61
2023-04-10T05:54:09.129Z,7.78
2023-04-10T05:55:14.309Z,7.85
2023-04-10T05:56:18.874Z,7.92
2023-04-10T05:57:20.872Z,8.14
2023-04-10T05:58:23.561Z,8.20
2023-04-10T05:59:25.796Z,8.25
2023-04-10T06:00:28.453Z,8.38
2023-04-10T06:01:35.658Z,8.50
2023-04-10T06:02:37.931Z,8.44
2023-04-10T06:03:42.001Z,8.60
2023-04-10T06:04:44.440Z,8.76
2023-04-10T06:05:46.565Z,8.85
2023-04-10T06:06:49.025Z,9.03
2023-04-10T06:07:51.717Z,8.80
2023-04-10T06:08:53.858Z,8.75
2023-04-10T06:09:55.937Z,8.84
2023-04-10T06:10:57.981Z,8.93
2023-04-10T06:12:00.151Z,8.92
2023-04-10T06:13:02.111Z,9.04
2023-04-10T06:14:04.123Z,9.25
2023-04-10T06:15:07.758Z,9.40
2023-04-10T06:16:10.205Z,9.48
2023-04-10T06:17:13.061Z,9.56
2023-04-10T06:18:14.944Z,9.46
2023-04-10T06:19:17.304Z,9.55
2023-04-10T06:20:19.420Z,9.60
2023-04-10T06:21:21.359Z,9.73
2023-04-10T06:22:23.537Z,9.91
2023-04-10T06:23:26.637Z,9.98
2023-04-10T06:24:28.780Z,10.11
2023-04-10T06:25:30.809Z,10.20
2023-04-10T06:26:34.096Z,10.26
2023-04-10T06:27:39.194Z,10.33
2023-04-10T06:28:45.028Z,10.38
2023-04-10T06:29:48.216Z,10.65
2023-04-10T06:30:51.410Z,10.69
2023-04-10T06:31:53.905Z,10.68
2023-04-10T06:32:56.890Z,10.92
2023-04-10T06:33:58.978Z,10.96
2023-04-10T06:35:01.869Z,11.19
2023-04-10T06:36:04.732Z,11.29
2023-04-10T06:37:08.043Z,11.44
2023-04-10T06:38:12.194Z,11.50
2023-04-10T06:39:14.838Z,11.67
2023-04-10T06:40:16.789Z,11.88
2023-04-10T06:41:18.805Z,11.98
2023-04-10T06:42:20.832Z,12.01
2023-04-10T06:43:27.995Z,11.99
2023-04-10T06:44:29.909Z,12.07
2023-04-10T06:45:31.829Z,12.21
2023-04-10T06:46:33.788Z,12.29
2023-04-10T06:47:36.043Z,12.42
2023-04-10T06:48:38.173Z,12.55
2023-04-10T06:49:40.062Z,12.56
2023-04-10T06:50:41.920Z,12.65
2023-04-10T06:51:45.950Z,12.84
2023-04-10T06:52:48.426Z,12.74
2023-04-10T06:53:51.101Z,12.80
2023-04-10T06:54:53.073Z,12.91
2023-04-10T06:55:55.051Z,12.69
2023-04-10T06:56:59.024Z,12.77
2023-04-10T06:58:01.212Z,12.90
2023-04-10T06:59:03.540Z,13.14
2023-04-10T07:00:07.893Z,13.21
2023-04-10T07:01:09.762Z,13.27
2023-04-10T07:02:11.845Z,13.48
2023-04-10T07:03:13.798Z,13.50
2023-04-10T07:04:16.451Z,13.67
2023-04-10T07:05:18.419Z,13.64
2023-04-10T07:06:20.290Z,13.74
2023-04-10T07:07:22.420Z,13.78
2023-04-10T07:08:24.436Z,13.84
2023-04-10T07:09:27.538Z,14.06
2023-04-10T07:10:29.445Z,14.13
2023-04-10T07:11:31.300Z,14.17
2023-04-10T07:12:33.634Z,14.01
2023-04-10T07:13:35.837Z,13.98
2023-04-10T07:14:38.148Z,14.08
2023-04-10T07:15:39.991Z,14.02
2023-04-10T07:16:42.075Z,14.22
2023-04-10T07:17:44.084Z,14.17
2023-04-10T07:18:47.358Z,14.27
2023-04-10T07:19:49.869Z,14.52
2023-04-10T07:20:51.882Z,14.70
2023-04-10T07:21:53.816Z,14.69
2023-04-10T07:22:55.737Z,14.73
2023-04-10T07:23:57.574Z,14.74
2023-04-10T07:24:59.826Z,14.71
2023-04-10T07:26:01.751Z,14.68
2023-04-10T07:27:03.747Z,14.81
2023-04-10T07:28:05.549Z,14.84
2023-04-10T07:29:07.699Z,14.73
2023-04-10T07:30:13.553Z,14.99
2023-04-10T07:31:17.852Z,14.68
2023-04-10T07:32:20.035Z,14.73
2023-04-10T07:33:22.158Z,14.64
2023-04-10T07:34:24.296Z,14.83
2023-04-10T07:35:27.155Z,15.07
2023-04-10T07:36:29.285Z,15.07
2023-04-10T07:37:31.352Z,15.23
2023-04-10T07:38:33.212Z,15.22
2023-04-10T07:39:35.139Z,15.04
2023-04-10T07:40:37.246Z,15.27
2023-04-10T07:41:39.243Z,15.22
2023-04-10T07:42:41.180Z,15.28
2023-04-10T07:43:43.152Z,15.35
2023-04-10T07:44:45.030Z,15.48
2023-04-10T07:45:47.498Z,15.65
2023-04-10T07:46:51.942Z,15.62
2023-04-10T07:47:53.996Z,15.76
2023-04-10T07:48:56.395Z,15.82
2023-04-10T07:49:58.553Z,15.90
2023-04-10T07:51:02.009Z,15.98
2023-04-10T07:52:04.011Z,16.02
2023-04-10T07:53:08.164Z,15.96
2023-04-10T07:54:10.201Z,15.83
2023-04-10T07:55:12.082Z,15.91
2023-04-10T07:56:18.608Z,16.07
2023-04-10T07:57:20.554Z,16.15
2023-04-10T07:58:22.489Z,16.03
2023-04-10T07:59:24.449Z,16.13
2023-04-10T08:00:26.676Z,16.30
2023-04-10T08:01:29.228Z,16.48
2023-04-10T08:02:31.589Z,16.42
2023-04-10T08:03:39.678Z,16.57
2023-04-10T08:04:42.811Z,16.43
2023-04-10T08:05:44.862Z,16.47
2023-04-10T08:06:47.078Z,16.46
2023-04-10T08:07:49.010Z,16.29
2023-04-10T08:08:52.541Z,16.40
2023-04-10T08:09:54.818Z,16.43
2023-04-10T08:10:56.707Z,16.46
2023-04-10T08:11:58.860Z,16.55
2023-04-10T08:13:00.818Z,16.49
2023-04-10T08:14:03.939Z,16.29
2023-04-10T08:15:06.411Z,16.69
2023-04-10T08:16:08.726Z,16.92
2023-04-10T08:17:14.735Z,17.08
2023-04-10T08:18:16.857Z,17.14
2023-04-10T08:19:18.746Z,17.04
2023-04-10T08:20:20.732Z,16.90
2023-04-10T08:21:23.576Z,16.85
2023-04-10T08:22:25.701Z,16.82
2023-04-10T08:23:27.575Z,16.74
2023-04-10T08:24:29.667Z,16.67
2023-04-10T08:25:31.751Z,16.78
2023-04-10T08:26:33.612Z,16.94
2023-04-10T08:27:35.886Z,17.06
2023-04-10T08:28:37.919Z,17.25
2023-04-10T08:29:39.758Z,17.43
2023-04-10T08:30:41.665Z,17.47
2023-04-10T08:31:43.627Z,17.45
2023-04-10T08:32:45.922Z,17.29
2023-04-10T08:33:48.418Z,17.39
2023-04-10T08:34:51.330Z,17.39
2023-04-10T08:35:53.222Z,17.66
2023-04-10T08:36:55.530Z,17.62
2023-04-10T08:38:12.271Z,17.73
2023-04-10T08:39:15.709Z,17.59
2023-04-10T08:40:17.588Z,17.42
2023-04-10T08:41:20.121Z,17.13
2023-04-10T08:42:22.551Z,17.55
2023-04-10T08:43:26.092Z,17.58
2023-04-10T08:44:28.017Z,17.67
2023-04-10T08:45:29.913Z,17.84
2023-04-10T08:46:36.118Z,17.85
2023-04-10T08:47:41.150Z,18.19
2023-04-10T08:48:59.641Z,18.14
2023-04-10T08:50:10.941Z,18.20
2023-04-10T08:51:20.559Z,18.20
2023-04-10T08:52:31.570Z,17.60
2023-04-10T08:53:39.953Z,17.45
2023-04-10T08:54:45.701Z,17.72
2023-04-10T08:55:47.738Z,17.63
2023-04-10T08:56:51.718Z,17.71
2023-04-10T08:58:00.509Z,17.62
2023-04-10T08:59:05.471Z,17.71
2023-04-10T09:01:31.202Z,17.47
2023-04-10T09:02:42.308Z,17.50
2023-04-10T09:03:48.121Z,17.72
2023-04-10T09:04:54.619Z,17.44
2023-04-10T09:05:57.227Z,17.69
2023-04-10T09:07:00.443Z,17.92
2023-04-10T09:08:02.672Z,17.99
2023-04-10T09:09:06.739Z,17.75
2023-04-10T09:10:09.181Z,17.63
2023-04-10T09:11:13.219Z,17.41
2023-04-10T09:12:16.732Z,17.41
2023-04-10T09:13:36.096Z,17.55
2023-04-10T09:14:38.251Z,17.50
2023-04-10T09:15:57.556Z,17.65
2023-04-10T09:17:17.720Z,17.77
2023-04-10T09:18:19.706Z,17.93
2023-04-10T09:19:39.953Z,17.94
2023-04-10T09:20:42.070Z,17.99
2023-04-10T09:21:50.677Z,17.93
2023-04-10T09:22:53.148Z,17.33
2023-04-10T09:24:01.305Z,17.30
2023-04-10T09:25:04.568Z,17.38
2023-04-10T09:26:25.468Z,17.11
2023-04-10T09:27:31.314Z,16.97
2023-04-10T09:29:03.287Z,17.05
2023-04-10T09:30:07.096Z,16.89
2023-04-10T09:31:31.409Z,17.08
2023-04-10T09:32:41.746Z,17.16
2023-04-10T09:33:44.052Z,17.26
2023-04-10T09:34:58.554Z,17.37
2023-04-10T09:36:01.033Z,17.51
2023-04-10T09:37:03.119Z,17.20
2023-04-10T09:38:18.687Z,17.39
2023-04-10T09:39:21.219Z,17.07
2023-04-10T09:40:25.163Z,17.24
2023-04-10T09:41:27.214Z,17.26
2023-04-10T09:42:39.729Z,16.97
2023-04-10T09:43:43.561Z,16.90
2023-04-10T09:44:45.884Z,16.35
2023-04-10T09:45:49.713Z,16.77
2023-04-10T09:46:51.619Z,16.73
2023-04-10T09:48:07.482Z,16.37
2023-04-10T09:49:09.504Z,16.30
2023-04-10T09:50:12.370Z,16.27
2023-04-10T09:51:39.664Z,16.33
2023-04-10T09:52:41.752Z,16.20
2023-04-10T09:53:50.916Z,16.07
2023-04-10T09:55:01.895Z,16.05
2023-04-10T09:56:05.608Z,16.02
2023-04-10T09:57:08.356Z,16.00
2023-04-10T09:58:11.144Z,15.98
2023-04-10T09:59:13.964Z,15.98
2023-04-10T10:00:16.360Z,16.05
2023-04-10T10:01:19.091Z,16.05
2023-04-10T10:02:23.682Z,16.08
2023-04-10T10:03:26.169Z,16.10
2023-04-10T10:04:28.996Z,16.12
2023-04-10T10:05:31.380Z,16.03
2023-04-10T10:06:34.724Z,16.04
2023-04-10T10:07:37.146Z,16.19
2023-04-10T10:08:39.972Z,16.09
2023-04-10T10:09:44.063Z,15.96
2023-04-10T10:10:52.339Z,16.06
2023-04-10T10:11:55.676Z,16.21
2023-04-10T10:13:01.823Z,16.21
2023-04-10T10:14:13.047Z,16.14
2023-04-10T10:15:27.039Z,16.19
2023-04-10T10:16:43.285Z,16.29
2023-04-10T10:18:26.155Z,16.30
2023-04-10T10:19:54.000Z,15.90
2023-04-10T10:20:56.364Z,15.96
2023-04-10T10:22:01.462Z,15.82
2023-04-10T10:23:04.357Z,15.73
2023-04-10T10:24:10.039Z,15.87
2023-04-10T10:25:13.620Z,15.82
2023-04-10T10:26:15.770Z,15.85
2023-04-10T10:27:19.495Z,15.84
2023-04-10T10:28:22.631Z,15.89
2023-04-10T10:29:24.509Z,15.70
2023-04-10T10:30:30.567Z,15.63
2023-04-10T10:31:34.070Z,15.47
2023-04-10T10:32:36.605Z,15.58
2023-04-10T10:33:40.288Z,15.43
2023-04-10T10:34:42.572Z,15.32
2023-04-10T10:35:45.033Z,15.11
2023-04-10T10:36:46.967Z,15.23
2023-04-10T10:37:49.444Z,15.15
2023-04-10T10:39:05.261Z,14.78
2023-04-10T10:40:17.650Z,14.78
2023-04-10T10:41:28.848Z,14.77
2023-04-10T10:43:13.699Z,14.79
2023-04-10T10:44:34.311Z,14.77
2023-04-10T10:45:42.555Z,14.80
2023-04-10T10:46:54.042Z,14.85
2023-04-10T10:47:56.317Z,14.71
2023-04-10T10:48:59.529Z,14.84
2023-04-10T10:50:03.881Z,14.86
2023-04-10T10:51:06.236Z,14.96
2023-04-10T10:52:08.230Z,14.85
2023-04-10T10:53:35.267Z,14.65
2023-04-10T10:54:44.536Z,14.41
2023-04-10T10:55:49.617Z,14.43
2023-04-10T10:56:51.556Z,14.53
2023-04-10T10:57:55.066Z,14.65
2023-04-10T10:59:01.901Z,14.47
2023-04-10T11:00:04.030Z,14.30
2023-04-10T11:01:10.040Z,14.34
2023-04-10T11:02:20.170Z,14.36
2023-04-10T11:03:22.680Z,14.35
2023-04-10T11:04:47.315Z,14.39
2023-04-10T11:06:00.954Z,14.44
2023-04-10T11:07:03.326Z,14.35
2023-04-10T11:08:09.280Z,14.42
2023-04-10T11:09:50.562Z,14.42
2023-04-10T11:11:08.342Z,14.40
2023-04-10T11:12:10.807Z,14.38
2023-04-10T11:13:17.682Z,14.44
2023-04-10T11:14:20.194Z,14.48
2023-04-10T11:15:25.911Z,14.45
2023-04-10T11:16:31.633Z,14.56
2023-04-10T11:17:54.303Z,14.59
2023-04-10T11:19:13.922Z,14.69
2023-04-10T11:20:20.021Z,14.68
2023-04-10T11:21:23.205Z,14.75
2023-04-10T11:22:25.302Z,14.71
2023-04-10T11:23:27.826Z,14.76
2023-04-10T11:24:50.321Z,14.63
2023-04-10T11:25:54.641Z,14.64
2023-04-10T11:26:56.927Z,14.37
2023-04-10T11:27:58.839Z,14.32
2023-04-10T11:29:02.257Z,14.39
2023-04-10T11:30:04.358Z,14.39
2023-04-10T11:31:23.412Z,14.35
2023-04-10T11:32:25.824Z,14.44
2023-04-10T11:33:27.733Z,14.50
2023-04-10T11:34:33.412Z,14.49
2023-04-10T11:35:35.542Z,14.52
2023-04-10T11:36:44.768Z,14.47
2023-04-10T11:37:46.861Z,14.54
2023-04-10T11:39:19.140Z,14.59
2023-04-10T11:40:21.523Z,14.60
2023-04-10T11:41:34.267Z,14.54
2023-04-10T11:42:36.163Z,14.53
2023-04-10T11:43:38.067Z,14.26
2023-04-10T11:44:40.879Z,14.02
2023-04-10T11:45:43.152Z,14.17
2023-04-10T11:46:51.035Z,14.09
2023-04-10T11:47:53.962Z,14.14
2023-04-10T11:49:01.210Z,14.07
2023-04-10T11:50:03.286Z,13.98
2023-04-10T11:51:14.056Z,14.03
2023-04-10T11:52:25.417Z,14.02
2023-04-10T11:53:27.892Z,14.05
2023-04-10T11:54:30.003Z,14.00
2023-04-10T11:55:39.074Z,14.01
2023-04-10T11:56:44.844Z,14.16
2023-04-10T11:57:46.757Z,14.15
2023-04-10T11:58:53.002Z,14.03
2023-04-10T11:59:55.131Z,14.06
2023-04-10T12:01:06.718Z,13.95
2023-04-10T12:02:09.460Z,13.95
2023-04-10T12:03:11.569Z,13.93
2023-04-10T12:04:18.164Z,13.95
2023-04-10T12:05:20.774Z,13.91
2023-04-10T12:06:22.931Z,14.01
2023-04-10T12:07:29.835Z,13.82
2023-04-10T12:08:34.910Z,13.64
2023-04-10T12:09:36.930Z,13.68
2023-04-10T12:10:47.926Z,13.71
2023-04-10T12:11:51.664Z,13.67
2023-04-10T12:12:54.014Z,13.71
2023-04-10T12:13:57.725Z,13.64
2023-04-10T12:14:59.762Z,13.77
2023-04-10T12:16:04.118Z,13.92
2023-04-10T12:17:07.856Z,13.97
2023-04-10T12:18:10.544Z,14.10
2023-04-10T12:19:14.107Z,14.06
2023-04-10T12:20:16.826Z,14.07
2023-04-10T12:21:19.179Z,14.13
2023-04-10T12:22:21.328Z,14.11
2023-04-10T12:23:24.406Z,14.10
2023-04-10T12:24:53.745Z,13.99
2023-04-10T12:26:12.576Z,13.74
2023-04-10T12:27:24.165Z,13.94
2023-04-10T12:28:26.796Z,14.06
2023-04-10T12:29:28.577Z,14.11
2023-04-10T12:30:30.482Z,14.23
2023-04-10T12:31:36.790Z,14.17
2023-04-10T12:32:38.927Z,14.12
2023-04-10T12:33:45.447Z,14.24
2023-04-10T12:34:58.481Z,14.36
2023-04-10T12:36:00.747Z,14.28
2023-04-10T12:37:03.033Z,14.37
2023-04-10T12:38:05.550Z,14.33
2023-04-10T12:39:22.828Z,14.31
2023-04-10T12:40:24.707Z,14.37
2023-04-10T12:41:31.746Z,14.41
2023-04-10T12:42:41.266Z,14.52
2023-04-10T12:43:44.782Z,14.10
2023-04-10T12:45:00.022Z,14.15
2023-04-10T12:46:03.124Z,14.29
2023-04-10T12:47:05.196Z,14.26
2023-04-10T12:48:07.156Z,14.30
2023-04-10T12:49:15.856Z,14.11
2023-04-10T12:50:20.805Z,14.22
2023-04-10T12:51:48.297Z,14.27
2023-04-10T12:53:06.475Z,14.38
2023-04-10T12:54:08.464Z,14.31
2023-04-10T12:55:17.434Z,14.31
2023-04-10T12:56:20.438Z,14.28
2023-04-10T12:57:28.399Z,14.30
2023-04-10T12:58:33.544Z,14.29
2023-04-10T12:59:35.436Z,14.19
2023-04-10T13:00:37.554Z,14.38
2023-04-10T13:01:40.115Z,14.32
2023-04-10T13:02:42.573Z,14.30
2023-04-10T13:03:46.698Z,14.20
2023-04-10T13:04:48.813Z,14.20
2023-04-10T13:05:51.998Z,14.15
2023-04-10T13:06:54.258Z,14.20
2023-04-10T13:07:56.233Z,14.17
2023-04-10T13:08:58.122Z,14.20
2023-04-10T13:10:00.409Z,14.31
2023-04-10T13:11:05.755Z,14.39
2023-04-10T13:12:08.059Z,14.23
2023-04-10T13:13:13.292Z,14.27
2023-04-10T13:14:16.010Z,14.26
2023-04-10T13:15:17.972Z,14.37
2023-04-10T13:16:19.896Z,14.38
2023-04-10T13:17:23.246Z,14.14
2023-04-10T13:18:25.380Z,14.26
2023-04-10T13:19:27.280Z,14.27
2023-04-10T13:20:29.912Z,14.13
2023-04-10T13:21:31.907Z,14.25
2023-04-10T13:22:34.119Z,14.21
2023-04-10T13:23:36.055Z,14.20
2023-04-10T13:24:38.413Z,14.24
2023-04-10T13:25:41.109Z,14.29
2023-04-10T13:26:42.928Z,14.29
2023-04-10T13:27:45.330Z,14.35
2023-04-10T13:28:47.349Z,14.39
2023-04-10T13:29:49.270Z,14.42
2023-04-10T13:30:52.025Z,14.58
2023-04-10T13:31:54.081Z,14.62
2023-04-10T13:32:56.392Z,14.63
2023-04-10T13:33:58.324Z,14.76
2023-04-10T13:35:00.240Z,14.91
2023-04-10T13:36:02.235Z,15.03
2023-04-10T13:37:04.361Z,15.24
2023-04-10T13:38:07.331Z,15.36
2023-04-10T13:39:09.166Z,15.52
2023-04-10T13:40:11.203Z,15.60
2023-04-10T13:41:13.109Z,15.73
2023-04-10T13:42:15.468Z,15.87
2023-04-10T13:43:17.625Z,16.01
2023-04-10T13:44:19.519Z,15.98
2023-04-10T13:45:21.648Z,15.97
2023-04-10T13:46:23.579Z,15.92
2023-04-10T13:47:25.640Z,15.90
2023-04-10T13:48:37.322Z,15.97
2023-04-10T13:49:39.653Z,16.22
2023-04-10T13:50:41.533Z,16.31
2023-04-10T13:51:45.020Z,16.33
2023-04-10T13:52:46.893Z,16.38
2023-04-10T13:53:49.041Z,16.49
2023-04-10T13:54:50.865Z,16.52
2023-04-10T13:55:52.731Z,16.52
2023-04-10T13:56:54.831Z,16.46
2023-04-10T13:57:56.762Z,16.20
2023-04-10T13:58:58.909Z,16.26
2023-04-10T14:00:01.333Z,16.21
2023-04-10T14:01:03.444Z,16.30
2023-04-10T14:02:05.753Z,16.35
2023-04-10T14:03:10.239Z,16.41
2023-04-10T14:04:12.217Z,16.41
2023-04-10T14:05:14.061Z,16.50
2023-04-10T14:06:15.912Z,16.57